Airport ID:CYTF
Update Time (UTC):07/08/2020 20:26
Wind Speed (Knots):7
Wind Direction (Magnetic):270
Temperature (°C):26.7
Dew Point (°C):15.3
Humidity (%):50
Altimeter (inHg):30.08
Density Altitude (Feet):02000
Visibility (Miles):6
Clouds (Hundreds of feet):FEW055 FEW130
Present Weather:
METAR:METAR CYTF 072030Z AUTO 25009KT 10SM FEW055 FEW130 27/16 A3008

The data displayed is for advisory purposes only and is not to be used for flight planning or operations.

This page is not automatically refreshed. Reload the page to see current data.